createdAt,value
2018-04-17T00:00:09.736Z,59.03
2018-04-17T00:01:10.205Z,59.03
2018-04-17T00:03:06.166Z,59.32
2018-04-17T00:04:05.630Z,59.99
2018-04-17T00:06:01.591Z,59.99
2018-04-17T00:07:01.566Z,59.32
2018-04-17T00:08:57.476Z,59.89
2018-04-17T00:09:58.021Z,59.99
2018-04-17T00:11:53.975Z,59.70
2018-04-17T00:12:53.400Z,59.89
2018-04-17T00:14:49.880Z,59.42
2018-04-17T00:15:49.356Z,59.89
2018-04-17T00:17:45.802Z,59.99
2018-04-17T00:18:45.806Z,59.80
2018-04-17T00:20:41.248Z,59.70
2018-04-17T00:21:41.210Z,59.70
2018-04-17T00:23:37.661Z,59.99
2018-04-17T00:24:37.138Z,59.89
2018-04-17T00:26:33.594Z,59.86
2018-04-17T00:27:33.609Z,59.51
2018-04-17T00:29:30.032Z,58.91
2018-04-17T00:30:28.995Z,59.42
2018-04-17T00:32:26.033Z,59.13
2018-04-17T00:33:25.940Z,59.03
2018-04-17T00:35:22.403Z,58.94
2018-04-17T00:36:22.415Z,59.03
2018-04-17T00:38:17.872Z,59.70
2018-04-17T00:39:17.849Z,59.89
2018-04-17T00:41:14.309Z,59.39
2018-04-17T00:42:13.793Z,59.13
2018-04-17T00:44:09.777Z,59.32
2018-04-17T00:45:09.755Z,59.32
2018-04-17T00:47:06.676Z,59.23
2018-04-17T00:48:05.645Z,58.91
2018-04-17T00:50:01.639Z,59.42
2018-04-17T00:51:01.598Z,58.84
2018-04-17T00:52:58.060Z,58.62
2018-04-17T00:53:57.536Z,59.01
2018-04-17T00:55:53.981Z,58.53
2018-04-17T00:56:54.993Z,58.72
2018-04-17T00:58:49.475Z,58.81
2018-04-17T00:59:49.394Z,58.62
2018-04-17T01:01:45.349Z,57.77
2018-04-17T01:02:45.844Z,58.06
2018-04-17T01:04:41.801Z,57.87
2018-04-17T01:05:42.223Z,58.06
2018-04-17T01:07:38.260Z,57.87
2018-04-17T01:08:38.737Z,57.48
2018-04-17T01:10:34.188Z,57.48
2018-04-17T01:11:34.182Z,57.48
2018-04-17T01:13:30.624Z,57.67
2018-04-17T01:14:30.136Z,58.15
2018-04-17T01:16:26.117Z,57.67
2018-04-17T01:17:26.071Z,57.67
2018-04-17T01:19:22.029Z,57.67
2018-04-17T01:20:23.528Z,57.67
2018-04-17T01:22:18.467Z,58.06
2018-04-17T01:23:18.444Z,57.87
2018-04-17T01:25:13.888Z,57.67
2018-04-17T01:26:13.877Z,57.87
2018-04-17T01:28:09.836Z,57.20
2018-04-17T01:29:09.815Z,57.20
2018-04-17T01:31:06.777Z,56.92
2018-04-17T01:32:05.753Z,57.01
2018-04-17T01:34:02.231Z,57.10
2018-04-17T01:35:02.223Z,56.92
2018-04-17T01:36:57.640Z,56.98
2018-04-17T01:37:57.648Z,57.10
2018-04-17T01:39:53.624Z,56.92
2018-04-17T01:40:53.582Z,57.10
2018-04-17T01:42:49.543Z,57.20
2018-04-17T01:43:50.039Z,56.72
2018-04-17T01:45:46.003Z,56.92
2018-04-17T01:46:45.990Z,57.01
2018-04-17T01:48:42.406Z,56.72
2018-04-17T01:49:42.838Z,57.10
2018-04-17T01:51:37.336Z,56.92
2018-04-17T01:52:37.308Z,56.82
2018-04-17T01:54:34.253Z,57.01
2018-04-17T01:55:33.234Z,56.92
2018-04-17T01:57:29.706Z,56.63
2018-04-17T01:58:29.681Z,56.72
2018-04-17T02:00:27.629Z,56.72
2018-04-17T02:01:27.134Z,56.72
2018-04-17T02:03:24.090Z,56.92
2018-04-17T02:04:23.059Z,56.92
2018-04-17T02:06:19.037Z,56.92
2018-04-17T02:07:19.006Z,56.88
2018-04-17T02:09:15.465Z,57.01
2018-04-17T02:10:14.895Z,56.72
2018-04-17T02:12:10.860Z,56.82
2018-04-17T02:13:10.858Z,56.98
2018-04-17T02:15:08.301Z,56.82
2018-04-17T02:16:06.762Z,56.72
2018-04-17T02:18:02.739Z,56.82
2018-04-17T02:19:02.737Z,56.70
2018-04-17T02:20:59.168Z,56.88
2018-04-17T02:21:58.657Z,56.79
2018-04-17T02:23:55.608Z,57.17
2018-04-17T02:24:54.590Z,57.17
2018-04-17T02:26:51.536Z,57.17
2018-04-17T02:27:50.538Z,56.98
2018-04-17T02:29:46.553Z,56.88
2018-04-17T02:30:47.988Z,56.88
2018-04-17T02:32:42.956Z,57.07
2018-04-17T02:33:42.401Z,57.07
2018-04-17T02:35:38.887Z,56.98
2018-04-17T02:36:38.343Z,57.07
2018-04-17T02:38:45.332Z,56.88
2018-04-17T02:39:45.331Z,56.98
2018-04-17T02:41:42.285Z,56.88
2018-04-17T02:42:41.258Z,56.98
2018-04-17T02:44:37.716Z,56.98
2018-04-17T02:45:38.709Z,56.88
2018-04-17T02:47:33.742Z,56.88
2018-04-17T02:48:33.140Z,56.88
2018-04-17T02:50:29.059Z,56.79
2018-04-17T02:51:29.073Z,56.98
2018-04-17T02:53:25.025Z,57.07
2018-04-17T02:54:25.004Z,56.60
2018-04-17T02:56:21.465Z,56.98
2018-04-17T02:57:20.944Z,56.98
2018-04-17T02:59:16.921Z,56.88
2018-04-17T03:00:16.829Z,57.07
2018-04-17T03:02:12.783Z,56.79
2018-04-17T03:03:12.759Z,57.07
2018-04-17T03:05:09.225Z,56.79
2018-04-17T03:06:08.694Z,56.98
2018-04-17T03:08:05.664Z,56.70
2018-04-17T03:09:05.154Z,57.17
2018-04-17T03:11:01.094Z,56.88
2018-04-17T03:12:00.571Z,56.79
2018-04-17T03:13:57.039Z,57.17
2018-04-17T03:14:57.030Z,56.88
2018-04-17T03:16:54.474Z,56.98
2018-04-17T03:17:52.969Z,56.79
2018-04-17T03:19:50.424Z,56.88
2018-04-17T03:20:50.393Z,56.79
2018-04-17T03:22:46.365Z,56.88
2018-04-17T03:23:46.855Z,57.17
2018-04-17T03:25:43.777Z,57.07
2018-04-17T03:26:42.282Z,56.70
2018-04-17T03:28:38.220Z,56.88
2018-04-17T03:29:38.184Z,56.88
2018-04-17T03:31:34.671Z,57.17
2018-04-17T03:32:34.141Z,56.88
2018-04-17T03:34:30.130Z,56.79
2018-04-17T03:35:30.574Z,56.70
2018-04-17T03:37:27.029Z,56.88
2018-04-17T03:38:25.980Z,56.88
2018-04-17T03:40:23.441Z,56.98
2018-04-17T03:41:21.913Z,57.17
2018-04-17T03:43:18.377Z,57.07
2018-04-17T03:44:17.845Z,57.07
2018-04-17T03:46:14.726Z,57.17
2018-04-17T03:47:13.790Z,56.98
2018-04-17T03:49:10.266Z,56.88
2018-04-17T03:50:10.242Z,56.98
2018-04-17T03:52:06.145Z,56.88
2018-04-17T03:53:05.622Z,56.60
2018-04-17T03:55:01.568Z,56.79
2018-04-17T03:56:01.562Z,56.98
2018-04-17T03:57:57.504Z,56.98
2018-04-17T03:58:59.044Z,56.98
2018-04-17T04:00:53.948Z,57.17
2018-04-17T04:01:53.450Z,56.88
2018-04-17T04:03:49.378Z,56.88
2018-04-17T04:04:49.382Z,56.70
2018-04-17T04:06:47.868Z,56.88
2018-04-17T04:07:48.347Z,56.79
2018-04-17T04:09:43.436Z,56.88
2018-04-17T04:10:43.910Z,56.98
2018-04-17T04:12:39.352Z,56.72
2018-04-17T04:13:39.350Z,56.98
2018-04-17T04:15:35.303Z,57.17
2018-04-17T04:16:35.265Z,57.07
2018-04-17T04:18:31.243Z,56.88
2018-04-17T04:19:32.210Z,56.92
2018-04-17T04:21:27.706Z,57.17
2018-04-17T04:22:28.601Z,56.88
2018-04-17T04:24:23.138Z,57.10
2018-04-17T04:25:23.088Z,57.20
2018-04-17T04:27:20.043Z,57.10
2018-04-17T04:28:19.541Z,57.20
2018-04-17T04:30:15.482Z,57.07
2018-04-17T04:31:14.965Z,57.58
2018-04-17T04:33:11.476Z,57.48
2018-04-17T04:34:10.901Z,57.87
2018-04-17T04:36:07.351Z,57.67
2018-04-17T04:37:06.850Z,57.96
2018-04-17T04:39:04.227Z,57.77
2018-04-17T04:40:03.310Z,57.67
2018-04-17T04:41:58.672Z,58.03
2018-04-17T04:42:58.678Z,58.25
2018-04-17T04:44:55.169Z,58.22
2018-04-17T04:45:54.621Z,58.22
2018-04-17T04:47:51.592Z,57.67
2018-04-17T04:48:51.086Z,58.06
2018-04-17T04:50:46.549Z,57.87
2018-04-17T04:51:47.039Z,57.67
2018-04-17T04:53:42.465Z,58.62
2018-04-17T04:54:42.968Z,58.15
2018-04-17T04:56:39.387Z,57.87
2018-04-17T04:57:38.417Z,58.72
2018-04-17T04:59:34.382Z,58.72
2018-04-17T05:00:34.259Z,58.62
2018-04-17T05:02:31.715Z,58.25
2018-04-17T05:03:30.711Z,58.72
2018-04-17T05:05:26.676Z,57.96
2018-04-17T05:06:27.679Z,57.96
2018-04-17T05:08:23.087Z,57.87
2018-04-17T05:09:22.071Z,58.72
2018-04-17T05:11:19.041Z,58.62
2018-04-17T05:12:18.027Z,58.53
2018-04-17T05:14:15.979Z,59.01
2018-04-17T05:15:16.500Z,58.72
2018-04-17T05:17:11.419Z,58.91
2018-04-17T05:18:10.910Z,58.81
2018-04-17T05:20:06.885Z,58.72
2018-04-17T05:21:06.853Z,58.94
2018-04-17T05:23:02.800Z,58.53
2018-04-17T05:24:02.791Z,59.13
2018-04-17T05:25:58.749Z,59.03
2018-04-17T05:26:58.738Z,59.03
2018-04-17T05:28:56.121Z,59.89
2018-04-17T05:29:54.644Z,59.80
2018-04-17T05:31:51.113Z,59.70
2018-04-17T05:32:50.591Z,59.99
2018-04-17T05:34:45.983Z,59.99
2018-04-17T05:35:45.025Z,59.99
2018-04-17T05:37:40.961Z,60.37
2018-04-17T05:38:41.467Z,60.56
2018-04-17T05:40:36.937Z,60.46
2018-04-17T05:41:36.904Z,60.56
2018-04-17T05:43:33.369Z,61.35
2018-04-17T05:44:32.839Z,61.35
2018-04-17T05:46:29.808Z,62.12
2018-04-17T05:47:29.291Z,62.21
2018-04-17T05:49:25.262Z,62.12
2018-04-17T05:50:25.238Z,61.93
2018-04-17T05:52:20.638Z,62.40
2018-04-17T05:53:20.630Z,62.49
2018-04-17T05:55:16.608Z,62.40
2018-04-17T05:56:17.080Z,62.78
2018-04-17T05:58:12.520Z,62.21
2018-04-17T05:59:12.496Z,63.00
2018-04-17T06:01:09.465Z,62.91
2018-04-17T06:02:08.458Z,62.91
2018-04-17T06:04:04.940Z,63.57
2018-04-17T06:05:04.414Z,63.20
2018-04-17T06:07:00.849Z,63.57
2018-04-17T06:08:00.869Z,63.96
2018-04-17T06:09:56.784Z,63.86
2018-04-17T06:10:56.300Z,63.96
2018-04-17T06:12:52.240Z,63.96
2018-04-17T06:13:53.227Z,63.96
2018-04-17T06:15:51.217Z,64.37
2018-04-17T06:16:48.205Z,64.65
2018-04-17T06:18:45.143Z,63.99
2018-04-17T06:19:44.102Z,64.28
2018-04-17T06:21:40.073Z,64.09
2018-04-17T06:22:40.051Z,64.47
2018-04-17T06:24:36.509Z,64.37
2018-04-17T06:25:35.999Z,64.75
2018-04-17T06:27:31.956Z,64.47
2018-04-17T06:28:31.932Z,65.52
2018-04-17T06:30:28.914Z,65.42
2018-04-17T06:31:27.881Z,65.33
2018-04-17T06:33:24.856Z,65.33
2018-04-17T06:34:23.855Z,65.26
2018-04-17T06:36:19.811Z,65.36
2018-04-17T06:38:36.270Z,65.26
2018-04-17T06:39:35.733Z,66.02
2018-04-17T06:41:31.648Z,65.93
2018-04-17T06:42:31.670Z,65.93
2018-04-17T06:44:27.612Z,65.93
2018-04-17T06:45:27.599Z,66.31
2018-04-17T06:47:24.099Z,66.31
2018-04-17T06:48:23.529Z,66.31
2018-04-17T06:50:19.993Z,66.02
2018-04-17T06:51:19.993Z,66.22
2018-04-17T06:53:15.427Z,66.22
2018-04-17T06:54:15.427Z,67.07
2018-04-17T06:56:11.392Z,67.07
2018-04-17T06:57:11.894Z,66.53
2018-04-17T06:59:07.343Z,66.92
2018-04-17T07:00:07.829Z,67.21
2018-04-17T07:02:04.246Z,66.92
2018-04-17T07:03:03.264Z,67.01
2018-04-17T07:05:01.225Z,67.30
2018-04-17T07:06:01.198Z,67.30
2018-04-17T07:07:58.143Z,67.77
2018-04-17T07:08:57.126Z,67.52
2018-04-17T07:10:53.067Z,68.00
2018-04-17T07:11:53.060Z,68.10
2018-04-17T07:13:49.529Z,68.00
2018-04-17T07:14:49.510Z,67.52
2018-04-17T07:16:44.959Z,68.19
2018-04-17T07:17:45.472Z,67.91
2018-04-17T07:19:40.881Z,68.38
2018-04-17T07:20:40.893Z,68.19
2018-04-17T07:22:37.372Z,68.80
2018-04-17T07:23:37.388Z,68.90
2018-04-17T07:25:33.291Z,68.80
2018-04-17T07:26:32.772Z,68.90
2018-04-17T07:28:29.746Z,68.32
2018-04-17T07:29:28.777Z,69.37
2018-04-17T07:31:24.711Z,68.80
2018-04-17T07:32:25.180Z,69.18
2018-04-17T07:34:21.141Z,69.09
2018-04-17T07:35:20.633Z,69.12
2018-04-17T07:37:17.580Z,69.12
2018-04-17T07:38:16.558Z,69.31
2018-04-17T07:40:13.013Z,69.79
2018-04-17T07:41:12.514Z,69.79
2018-04-17T07:43:08.456Z,69.70
2018-04-17T07:44:08.459Z,69.50
2018-04-17T07:46:05.419Z,69.41
2018-04-17T07:47:04.459Z,70.17
2018-04-17T07:49:01.414Z,69.50
2018-04-17T07:50:00.369Z,69.89
2018-04-17T07:51:56.318Z,70.17
2018-04-17T07:52:56.820Z,70.40
2018-04-17T07:54:52.285Z,70.50
2018-04-17T07:55:53.289Z,70.59
2018-04-17T07:57:49.260Z,71.93
2018-04-17T07:58:48.740Z,71.93
2018-04-17T08:00:44.206Z,71.93
2018-04-17T08:01:44.181Z,72.12
2018-04-17T08:03:40.652Z,72.22
2018-04-17T08:04:40.634Z,72.60
2018-04-17T08:06:37.095Z,72.79
2018-04-17T08:07:36.076Z,73.17
2018-04-17T08:09:32.049Z,73.40
2018-04-17T08:10:32.550Z,72.73
2018-04-17T08:12:27.971Z,73.50
2018-04-17T08:13:27.942Z,74.07
2018-04-17T08:15:24.404Z,73.50
2018-04-17T08:16:23.923Z,73.79
2018-04-17T08:18:20.356Z,74.58
2018-04-17T08:19:19.854Z,74.20
2018-04-17T08:21:16.317Z,74.87
2018-04-17T08:22:16.381Z,74.30
2018-04-17T08:24:11.785Z,74.97
2018-04-17T08:25:11.779Z,75.07
2018-04-17T08:27:08.264Z,74.68
2018-04-17T08:28:08.209Z,74.77
2018-04-17T08:30:03.677Z,75.45
2018-04-17T08:31:04.169Z,75.39
2018-04-17T08:33:00.622Z,75.58
2018-04-17T08:33:59.610Z,76.06
2018-04-17T08:35:55.592Z,76.15
2018-04-17T08:36:55.568Z,75.87
2018-04-17T08:38:51.514Z,75.39
2018-04-17T08:39:49.979Z,76.06
2018-04-17T08:41:45.946Z,76.15
2018-04-17T08:42:45.960Z,75.96
2018-04-17T08:44:41.891Z,76.25
2018-04-17T08:45:41.882Z,76.96
2018-04-17T08:47:36.329Z,76.39
2018-04-17T08:48:36.842Z,76.96
2018-04-17T08:50:32.314Z,76.67
2018-04-17T08:51:32.279Z,76.67
2018-04-17T08:53:28.754Z,76.96
2018-04-17T08:54:28.282Z,76.77
2018-04-17T08:56:24.185Z,76.86
2018-04-17T08:57:24.688Z,77.00
2018-04-17T08:59:21.140Z,77.09
2018-04-17T09:00:20.640Z,77.19
2018-04-17T09:02:16.090Z,76.90
2018-04-17T09:03:16.082Z,76.90
2018-04-17T09:05:12.045Z,77.23
2018-04-17T09:06:12.020Z,76.84
2018-04-17T09:08:08.508Z,76.84
2018-04-17T09:09:07.967Z,76.75
2018-04-17T09:11:04.451Z,77.33
2018-04-17T09:12:03.932Z,76.56
2018-04-17T09:13:59.923Z,76.65
2018-04-17T09:14:59.888Z,76.79
2018-04-17T09:16:55.852Z,76.98
2018-04-17T09:17:55.852Z,76.40
2018-04-17T09:19:53.764Z,76.69
2018-04-17T09:20:54.301Z,76.31
2018-04-17T09:22:52.744Z,75.92
2018-04-17T09:23:51.929Z,75.92
2018-04-17T09:25:48.342Z,76.82
2018-04-17T09:26:47.825Z,75.82
2018-04-17T09:28:44.292Z,76.15
2018-04-17T09:29:43.785Z,75.38
2018-04-17T09:31:41.228Z,75.20
2018-04-17T09:32:39.710Z,74.96
2018-04-17T09:34:35.715Z,75.96
2018-04-17T09:35:35.705Z,76.06
2018-04-17T09:37:32.662Z,76.15
2018-04-17T09:38:32.651Z,76.15
2018-04-17T09:40:28.614Z,74.90
2018-04-17T09:41:28.115Z,74.04
2018-04-17T09:43:23.615Z,74.13
2018-04-17T09:44:23.557Z,74.08
2018-04-17T09:46:19.551Z,73.60
2018-04-17T09:47:19.518Z,73.02
2018-04-17T09:49:15.490Z,72.44
2018-04-17T09:50:15.430Z,72.16
2018-04-17T09:52:12.411Z,70.72
2018-04-17T09:53:11.895Z,70.62
2018-04-17T09:55:07.876Z,71.14
2018-04-17T09:56:07.375Z,70.17
2018-04-17T09:58:03.396Z,68.54
2018-04-17T09:59:03.375Z,69.12
2018-04-17T10:01:00.349Z,68.35
2018-04-17T10:02:00.351Z,68.54
2018-04-17T10:03:56.818Z,69.21
2018-04-17T10:04:56.820Z,67.58
2018-04-17T10:06:50.777Z,65.40
2018-04-17T10:07:50.780Z,64.73
2018-04-17T10:09:44.740Z,65.69
2018-04-17T10:10:45.152Z,64.98
2018-04-17T10:12:40.217Z,65.69
2018-04-17T10:13:40.221Z,65.40
2018-04-17T10:15:37.179Z,63.95
2018-04-17T10:16:36.184Z,64.15
2018-04-17T10:18:32.190Z,62.71
2018-04-17T10:19:32.151Z,62.61
2018-04-17T10:21:28.613Z,64.92
2018-04-17T10:22:28.627Z,64.73
2018-04-17T10:24:24.590Z,64.15
2018-04-17T10:25:24.066Z,64.86
2018-04-17T10:28:53.876Z,62.26
2018-04-17T10:29:53.861Z,60.42
2018-04-17T10:31:50.791Z,63.02
2018-04-17T10:32:50.797Z,62.03
2018-04-17T10:34:45.765Z,61.39
2018-04-17T10:35:45.760Z,60.72
2018-04-17T10:37:41.730Z,62.74
2018-04-17T10:38:42.727Z,61.29
2018-04-17T10:40:38.689Z,60.62
2018-04-17T10:41:38.710Z,61.80
2018-04-17T10:43:34.195Z,62.74
2018-04-17T10:44:33.661Z,61.90
2018-04-17T10:46:29.669Z,60.52
2018-04-17T10:47:29.618Z,59.66
2018-04-17T10:49:25.077Z,61.87
2018-04-17T10:50:24.038Z,61.68
2018-04-17T10:52:20.018Z,58.98
2018-04-17T10:53:19.992Z,57.15
2018-04-17T10:55:15.465Z,55.13
2018-04-17T10:56:14.459Z,54.46
2018-04-17T10:58:11.418Z,55.65
2018-04-17T10:59:10.439Z,56.32
2018-04-17T11:01:06.367Z,55.16
2018-04-17T11:02:06.379Z,54.20
2018-04-17T11:04:02.419Z,54.46
2018-04-17T11:05:02.380Z,55.45
2018-04-17T11:06:59.252Z,54.10
2018-04-17T11:07:58.830Z,53.40
2018-04-17T11:09:54.796Z,53.88
2018-04-17T11:10:54.805Z,53.98
2018-04-17T11:12:48.739Z,54.17
2018-04-17T11:13:49.234Z,57.76
2018-04-17T11:15:43.194Z,55.83
2018-04-17T11:16:44.181Z,57.18
2018-04-17T11:18:39.156Z,56.03
2018-04-17T11:19:39.161Z,55.55
2018-04-17T11:21:35.106Z,55.55
2018-04-17T11:22:35.123Z,55.07
2018-04-17T11:24:30.581Z,54.49
2018-04-17T11:25:30.590Z,54.87
2018-04-17T11:27:24.576Z,54.80
2018-04-17T11:28:24.050Z,54.22
2018-04-17T11:30:19.002Z,51.92
2018-04-17T11:31:19.011Z,52.69
2018-04-17T11:33:12.960Z,51.43
2018-04-17T11:34:12.966Z,51.62
2018-04-17T11:36:08.430Z,51.82
2018-04-17T11:37:07.400Z,52.20
2018-04-17T11:39:03.870Z,51.36
2018-04-17T11:40:03.328Z,48.95
2018-04-17T11:41:59.303Z,47.67
2018-04-17T11:42:59.293Z,47.19
2018-04-17T11:44:55.747Z,49.02
2018-04-17T11:45:55.236Z,49.51
2018-04-17T11:47:50.705Z,49.43
2018-04-17T11:48:49.704Z,49.05
2018-04-17T11:50:46.601Z,48.28
2018-04-17T11:51:46.170Z,47.22
2018-04-17T11:53:41.130Z,47.19
2018-04-17T11:54:40.640Z,47.10
2018-04-17T11:56:36.082Z,49.12
2018-04-17T11:57:36.101Z,49.60
2018-04-17T11:59:29.479Z,48.95
2018-04-17T12:00:29.517Z,49.24
2018-04-17T12:02:26.970Z,47.89
2018-04-17T12:03:25.462Z,47.92
2018-04-17T12:05:23.409Z,46.47
2018-04-17T12:06:21.918Z,47.05
2018-04-17T12:08:15.894Z,46.66
2018-04-17T12:09:16.881Z,46.86
2018-04-17T12:11:13.605Z,46.56
2018-04-17T12:12:13.298Z,45.89
2018-04-17T12:14:06.421Z,45.99
2018-04-17T12:15:06.902Z,45.51
2018-04-17T12:17:02.380Z,46.86
2018-04-17T12:18:02.365Z,46.95
2018-04-17T12:19:56.339Z,47.53
2018-04-17T12:20:55.810Z,47.44
2018-04-17T12:22:55.275Z,47.07
2018-04-17T12:23:54.784Z,45.24
2018-04-17T12:25:50.421Z,45.34
2018-04-17T12:26:49.851Z,44.95
2018-04-17T12:28:44.285Z,44.95
2018-04-17T12:29:44.291Z,44.46
2018-04-17T12:31:40.262Z,45.04
2018-04-17T12:32:40.275Z,44.95
2018-04-17T12:34:37.252Z,43.70
2018-04-17T12:35:36.220Z,43.60
2018-04-17T12:37:32.168Z,43.91
2018-04-17T12:38:32.679Z,43.89
2018-04-17T12:40:26.163Z,41.86
2018-04-17T12:41:25.712Z,42.25
2018-04-17T12:43:20.597Z,42.44
2018-04-17T12:44:20.109Z,42.42
2018-04-17T12:46:17.086Z,42.63
2018-04-17T12:47:16.559Z,43.31
2018-04-17T12:49:12.515Z,43.79
2018-04-17T12:50:11.988Z,43.62
2018-04-17T12:52:06.467Z,44.20
2018-04-17T12:53:06.485Z,43.81
2018-04-17T12:55:00.908Z,43.91
2018-04-17T12:56:00.910Z,43.24
2018-04-17T12:57:55.401Z,43.24
2018-04-17T12:58:55.380Z,43.04
2018-04-17T13:00:49.889Z,43.72
2018-04-17T13:01:49.850Z,44.10
2018-04-17T13:03:44.827Z,44.20
2018-04-17T13:04:45.314Z,43.62
2018-04-17T13:06:39.217Z,44.49
2018-04-17T13:07:37.784Z,43.06
2018-04-17T13:09:32.744Z,42.48
2018-04-17T13:10:32.768Z,42.58
2018-04-17T13:12:31.711Z,41.88
2018-04-17T13:13:31.189Z,41.69
2018-04-17T13:15:28.262Z,41.40
2018-04-17T13:16:26.288Z,42.46
2018-04-17T13:18:22.271Z,42.18
2018-04-17T13:19:22.233Z,42.10
2018-04-17T13:21:17.215Z,41.78
2018-04-17T13:22:16.709Z,41.78
2018-04-17T13:24:13.197Z,42.58
2018-04-17T13:25:12.671Z,42.75
2018-04-17T13:27:07.167Z,42.39
2018-04-17T13:28:07.157Z,41.91
2018-04-17T13:30:02.679Z,42.00
2018-04-17T13:31:02.123Z,41.71
2018-04-17T13:32:56.089Z,41.71
2018-04-17T13:33:56.595Z,41.35
2018-04-17T13:35:52.055Z,41.42
2018-04-17T13:36:52.050Z,40.84
2018-04-17T13:38:48.024Z,41.73
2018-04-17T13:39:47.985Z,41.81
2018-04-17T13:41:44.461Z,41.13
2018-04-17T13:42:43.932Z,41.33
2018-04-17T13:44:39.933Z,41.81
2018-04-17T13:45:39.936Z,41.61
2018-04-17T13:47:35.928Z,41.61
2018-04-17T13:48:36.400Z,42.00
2018-04-17T13:50:30.371Z,41.54
2018-04-17T13:51:31.296Z,40.86
2018-04-17T13:53:24.846Z,41.25
2018-04-17T13:54:26.266Z,41.44
2018-04-17T13:56:24.299Z,40.67
2018-04-17T13:57:22.955Z,41.05
2018-04-17T13:59:19.444Z,41.25
2018-04-17T14:00:18.900Z,40.86
2018-04-17T14:02:14.883Z,40.96
2018-04-17T14:03:14.865Z,41.44
2018-04-17T14:05:11.320Z,40.96
2018-04-17T14:06:10.826Z,40.57
2018-04-17T14:08:07.293Z,40.67
2018-04-17T14:09:06.783Z,41.35
2018-04-17T14:11:03.755Z,40.77
2018-04-17T14:12:02.771Z,40.77
2018-04-17T14:13:59.248Z,40.67
2018-04-17T14:14:59.733Z,40.19
2018-04-17T14:16:54.737Z,39.80
2018-04-17T14:17:55.205Z,39.70
2018-04-17T14:19:50.693Z,40.09
2018-04-17T14:20:51.168Z,40.57
2018-04-17T14:22:46.167Z,40.28
2018-04-17T14:23:46.144Z,40.57
2018-04-17T14:25:42.106Z,39.32
2018-04-17T14:26:41.241Z,39.80
2018-04-17T14:28:38.085Z,40.19
2018-04-17T14:29:37.048Z,40.19
2018-04-17T14:31:33.010Z,40.19
2018-04-17T14:32:33.013Z,40.38
2018-04-17T14:34:28.982Z,39.12
2018-04-17T14:35:29.000Z,39.80
2018-04-17T14:37:25.957Z,40.09
2018-04-17T14:38:24.957Z,40.47
2018-04-17T14:40:21.434Z,39.99
2018-04-17T14:41:21.860Z,39.80
2018-04-17T14:43:17.398Z,39.12
2018-04-17T14:44:17.396Z,39.32
2018-04-17T14:46:12.862Z,38.74
2018-04-17T14:47:12.889Z,38.64
2018-04-17T14:49:08.840Z,39.22
2018-04-17T14:50:08.808Z,39.32
2018-04-17T14:52:03.771Z,39.70
2018-04-17T14:53:03.271Z,39.99
2018-04-17T14:54:56.726Z,40.09
2018-04-17T14:55:57.660Z,39.80
2018-04-17T14:57:52.719Z,39.90
2018-04-17T14:58:53.191Z,39.70
2018-04-17T15:00:46.167Z,40.09
2018-04-17T15:01:46.167Z,39.80
2018-04-17T15:03:40.638Z,40.17
2018-04-17T15:04:41.144Z,40.26
2018-04-17T15:06:37.103Z,41.23
2018-04-17T15:07:36.590Z,40.75
2018-04-17T15:09:32.532Z,40.94
2018-04-17T15:10:32.533Z,41.35
2018-04-17T15:12:28.001Z,40.77
2018-04-17T15:13:26.976Z,40.86
2018-04-17T15:15:20.996Z,40.57
2018-04-17T15:16:20.464Z,40.47
2018-04-17T15:18:15.920Z,40.47
2018-04-17T15:19:14.939Z,39.99
2018-04-17T15:21:10.428Z,40.28
2018-04-17T15:22:09.425Z,40.47
2018-04-17T15:24:04.884Z,40.38
2018-04-17T15:25:03.900Z,39.90
2018-04-17T15:26:59.363Z,40.28
2018-04-17T15:27:58.361Z,40.38
2018-04-17T15:29:54.341Z,40.47
2018-04-17T15:30:55.343Z,40.28
2018-04-17T15:32:50.306Z,39.51
2018-04-17T15:33:50.289Z,40.09
2018-04-17T15:35:44.755Z,39.70
2018-04-17T15:36:43.759Z,39.70
2018-04-17T15:38:37.184Z,40.09
2018-04-17T15:39:37.196Z,39.53
2018-04-17T15:41:31.671Z,40.01
2018-04-17T15:42:32.152Z,39.82
2018-04-17T15:44:26.121Z,39.34
2018-04-17T15:45:26.633Z,39.24
2018-04-17T15:47:23.091Z,39.06
2018-04-17T15:48:20.585Z,38.68
2018-04-17T15:50:17.062Z,38.00
2018-04-17T15:51:17.540Z,38.00
2018-04-17T15:53:12.508Z,37.90
2018-04-17T15:54:12.017Z,38.10
2018-04-17T15:56:08.059Z,38.18
2018-04-17T15:57:07.028Z,38.95
2018-04-17T15:59:00.452Z,38.87
2018-04-17T16:00:01.420Z,38.56
2018-04-17T16:01:56.431Z,38.78
2018-04-17T16:02:56.416Z,38.97
2018-04-17T16:04:50.901Z,38.18
2018-04-17T16:05:50.870Z,38.20
2018-04-17T16:07:44.347Z,38.87
2018-04-17T16:08:44.833Z,38.68
2018-04-17T16:10:38.814Z,38.68
2018-04-17T16:11:38.801Z,38.20
2018-04-17T16:13:32.257Z,39.06
2018-04-17T16:14:32.772Z,38.97
2018-04-17T16:16:25.738Z,37.81
2018-04-17T16:17:26.247Z,37.13
2018-04-17T16:19:19.159Z,38.10
2018-04-17T16:20:19.162Z,38.10
2018-04-17T16:22:15.142Z,38.68
2018-04-17T16:23:15.155Z,38.29
2018-04-17T16:25:11.628Z,37.52
2018-04-17T16:26:11.134Z,37.71
2018-04-17T16:28:05.595Z,39.26
2018-04-17T16:29:05.597Z,38.97
2018-04-17T16:31:03.575Z,38.78
2018-04-17T16:32:01.705Z,38.68
2018-04-17T16:33:57.689Z,38.87
2018-04-17T16:36:12.133Z,38.68
2018-04-17T16:37:12.162Z,38.78
2018-04-17T16:39:08.130Z,38.78
2018-04-17T16:40:08.635Z,38.78
2018-04-17T16:42:04.574Z,37.13
2018-04-17T16:43:05.083Z,37.42
2018-04-17T16:45:01.537Z,38.10
2018-04-17T16:46:01.043Z,38.29
2018-04-17T16:47:58.147Z,38.00
2018-04-17T16:48:58.165Z,37.71
2018-04-17T16:50:53.151Z,37.79
2018-04-17T16:51:53.618Z,38.18
2018-04-17T16:53:49.156Z,37.40
2018-04-17T16:54:48.140Z,37.70
2018-04-17T16:56:43.132Z,38.18
2018-04-17T16:57:43.140Z,38.08
2018-04-17T16:59:40.611Z,38.08
2018-04-17T17:00:39.142Z,38.66
2018-04-17T17:02:34.605Z,38.76
2018-04-17T17:03:33.601Z,38.76
2018-04-17T17:05:31.076Z,38.28
2018-04-17T17:06:30.570Z,37.98
2018-04-17T17:08:26.098Z,37.79
2018-04-17T17:09:25.609Z,37.70
2018-04-17T17:11:21.579Z,38.08
2018-04-17T17:12:22.502Z,38.08
2018-04-17T17:14:17.030Z,38.66
2018-04-17T17:15:16.042Z,38.37
2018-04-17T17:17:13.022Z,37.90
2018-04-17T17:18:12.049Z,37.71
2018-04-17T17:20:08.495Z,37.81
2018-04-17T17:21:08.003Z,37.23
2018-04-17T17:23:02.473Z,36.65
2018-04-17T17:24:03.453Z,36.66
2018-04-17T17:25:56.915Z,37.24
2018-04-17T17:26:56.912Z,37.34
2018-04-17T17:28:52.822Z,35.80
2018-04-17T17:29:53.382Z,35.12
2018-04-17T17:31:49.735Z,34.45
2018-04-17T17:32:49.819Z,34.07
2018-04-17T17:34:42.802Z,34.77
2018-04-17T17:35:42.388Z,34.38
2018-04-17T17:37:38.356Z,33.41
2018-04-17T17:38:39.343Z,34.38
2018-04-17T17:40:35.264Z,36.98
2018-04-17T17:42:50.295Z,36.00
2018-04-17T17:43:51.216Z,35.81
2018-04-17T17:45:49.265Z,36.86
2018-04-17T17:46:49.277Z,38.89
2018-04-17T17:48:45.925Z,40.42
2018-04-17T17:49:45.424Z,40.40
2018-04-17T17:51:40.961Z,41.63
2018-04-17T17:52:40.490Z,42.60
2018-04-17T17:54:38.918Z,43.84
2018-04-17T17:55:37.428Z,44.90
2018-04-17T17:57:41.974Z,45.36
2018-04-17T17:58:42.905Z,45.84
2018-04-17T18:00:39.413Z,45.43
2018-04-17T18:01:38.917Z,46.88
2018-04-17T18:03:33.926Z,48.81
2018-04-17T18:04:33.921Z,49.17
2018-04-17T18:06:35.413Z,48.21
2018-04-17T18:07:35.386Z,48.49
2018-04-17T18:09:30.419Z,47.89
2018-04-17T18:10:30.911Z,48.95
2018-04-17T18:12:25.855Z,50.40
2018-04-17T18:13:25.847Z,51.36
2018-04-17T18:15:21.815Z,52.42
2018-04-17T18:16:20.842Z,53.48
2018-04-17T18:18:17.794Z,53.27
2018-04-17T18:19:17.800Z,53.55
2018-04-17T18:21:14.273Z,55.00
2018-04-17T18:22:12.822Z,54.97
2018-04-17T18:24:07.795Z,56.60
2018-04-17T18:25:07.321Z,56.51
2018-04-17T18:27:02.278Z,58.15
2018-04-17T18:28:02.800Z,59.37
2018-04-17T18:29:56.235Z,60.33
2018-04-17T18:30:57.695Z,59.75
2018-04-17T18:32:54.235Z,60.81
2018-04-17T18:33:54.227Z,61.77
2018-04-17T18:35:51.182Z,61.97
2018-04-17T18:36:51.167Z,61.46
2018-04-17T18:38:44.680Z,63.51
2018-04-17T18:39:44.622Z,64.53
2018-04-17T18:41:38.082Z,64.92
2018-04-17T18:42:38.613Z,66.17
2018-04-17T18:44:32.543Z,67.32
2018-04-17T18:45:32.558Z,67.58
2018-04-17T18:47:26.068Z,67.96
2018-04-17T18:48:26.095Z,69.40
2018-04-17T18:50:27.051Z,69.79
2018-04-17T18:51:26.548Z,70.07
2018-04-17T18:53:31.028Z,72.86
2018-04-17T18:54:31.503Z,72.77